sensor_id;sensor_type;location;lat;lon;timestamp;P1;durP1;ratioP1;P2;durP2;ratioP2
14078;SDS011;7115;50.150;8.568;2023-03-23T00:01:53;1.40;;;0.67;;
14078;SDS011;7115;50.150;8.568;2023-03-23T00:04:19;1.07;;;0.57;;
14078;SDS011;7115;50.150;8.568;2023-03-23T00:06:46;1.87;;;0.70;;
14078;SDS011;7115;50.150;8.568;2023-03-23T00:09:13;3.00;;;0.90;;
14078;SDS011;7115;50.150;8.568;2023-03-23T00:11:40;3.77;;;0.97;;
14078;SDS011;7115;50.150;8.568;2023-03-23T00:14:10;2.00;;;0.70;;
14078;SDS011;7115;50.150;8.568;2023-03-23T00:16:38;2.13;;;0.60;;
14078;SDS011;7115;50.150;8.568;2023-03-23T00:19:06;4.53;;;0.90;;
14078;SDS011;7115;50.150;8.568;2023-03-23T00:21:34;3.27;;;1.60;;
14078;SDS011;7115;50.150;8.568;2023-03-23T00:24:02;0.93;;;0.60;;
14078;SDS011;7115;50.150;8.568;2023-03-23T00:26:33;2.97;;;0.80;;
14078;SDS011;7115;50.150;8.568;2023-03-23T00:29:00;1.27;;;0.60;;
14078;SDS011;7115;50.150;8.568;2023-03-23T00:31:27;1.10;;;0.70;;
14078;SDS011;7115;50.150;8.568;2023-03-23T00:33:57;1.77;;;0.80;;
14078;SDS011;7115;50.150;8.568;2023-03-23T00:36:23;2.50;;;0.90;;
14078;SDS011;7115;50.150;8.568;2023-03-23T00:38:49;1.03;;;0.53;;
14078;SDS011;7115;50.150;8.568;2023-03-23T00:41:15;1.00;;;0.50;;
14078;SDS011;7115;50.150;8.568;2023-03-23T00:43:42;1.10;;;0.73;;
14078;SDS011;7115;50.150;8.568;2023-03-23T00:46:08;2.07;;;0.70;;
14078;SDS011;7115;50.150;8.568;2023-03-23T00:48:35;0.63;;;0.43;;
14078;SDS011;7115;50.150;8.568;2023-03-23T00:51:01;3.40;;;0.80;;
14078;SDS011;7115;50.150;8.568;2023-03-23T00:53:31;1.17;;;0.50;;
14078;SDS011;7115;50.150;8.568;2023-03-23T00:55:57;0.97;;;0.67;;
14078;SDS011;7115;50.150;8.568;2023-03-23T00:58:23;1.43;;;0.60;;
14078;SDS011;7115;50.150;8.568;2023-03-23T01:00:50;2.20;;;0.70;;
14078;SDS011;7115;50.150;8.568;2023-03-23T01:03:16;1.77;;;0.63;;
14078;SDS011;7115;50.150;8.568;2023-03-23T01:05:43;2.17;;;0.50;;
14078;SDS011;7115;50.150;8.568;2023-03-23T01:08:12;2.70;;;0.67;;
14078;SDS011;7115;50.150;8.568;2023-03-23T01:10:39;1.40;;;0.70;;
14078;SDS011;7115;50.150;8.568;2023-03-23T01:13:05;1.60;;;0.70;;
14078;SDS011;7115;50.150;8.568;2023-03-23T01:15:31;1.87;;;0.90;;
14078;SDS011;7115;50.150;8.568;2023-03-23T01:17:58;1.20;;;0.53;;
14078;SDS011;7115;50.150;8.568;2023-03-23T01:20:24;1.27;;;0.53;;
14078;SDS011;7115;50.150;8.568;2023-03-23T01:22:51;2.00;;;1.20;;
14078;SDS011;7115;50.150;8.568;2023-03-23T01:25:18;1.13;;;0.67;;
14078;SDS011;7115;50.150;8.568;2023-03-23T01:27:44;1.97;;;0.63;;
14078;SDS011;7115;50.150;8.568;2023-03-23T01:30:11;2.37;;;0.70;;
14078;SDS011;7115;50.150;8.568;2023-03-23T01:32:37;3.23;;;0.90;;
14078;SDS011;7115;50.150;8.568;2023-03-23T01:35:05;2.30;;;1.03;;
14078;SDS011;7115;50.150;8.568;2023-03-23T01:37:31;2.73;;;0.60;;
14078;SDS011;7115;50.150;8.568;2023-03-23T01:39:57;1.03;;;0.80;;
14078;SDS011;7115;50.150;8.568;2023-03-23T01:42:23;2.43;;;0.80;;
14078;SDS011;7115;50.150;8.568;2023-03-23T01:47:52;1.97;;;0.90;;
14078;SDS011;7115;50.150;8.568;2023-03-23T01:50:24;2.67;;;0.73;;
14078;SDS011;7115;50.150;8.568;2023-03-23T01:52:52;2.17;;;0.90;;
14078;SDS011;7115;50.150;8.568;2023-03-23T01:55:20;2.40;;;0.80;;
14078;SDS011;7115;50.150;8.568;2023-03-23T01:57:47;1.70;;;0.67;;
14078;SDS011;7115;50.150;8.568;2023-03-23T02:00:14;0.90;;;0.70;;
14078;SDS011;7115;50.150;8.568;2023-03-23T02:02:41;1.30;;;0.80;;
14078;SDS011;7115;50.150;8.568;2023-03-23T02:05:11;1.20;;;0.63;;
14078;SDS011;7115;50.150;8.568;2023-03-23T02:07:41;2.67;;;0.80;;
14078;SDS011;7115;50.150;8.568;2023-03-23T02:10:08;3.87;;;0.80;;
14078;SDS011;7115;50.150;8.568;2023-03-23T02:12:34;1.43;;;0.60;;
14078;SDS011;7115;50.150;8.568;2023-03-23T02:15:00;2.90;;;0.70;;
14078;SDS011;7115;50.150;8.568;2023-03-23T02:17:30;1.83;;;0.83;;
14078;SDS011;7115;50.150;8.568;2023-03-23T02:20:06;2.43;;;0.80;;
14078;SDS011;7115;50.150;8.568;2023-03-23T02:26:01;1.97;;;0.63;;
14078;SDS011;7115;50.150;8.568;2023-03-23T02:28:45;3.50;;;0.83;;
14078;SDS011;7115;50.150;8.568;2023-03-23T02:31:35;2.63;;;1.00;;
14078;SDS011;7115;50.150;8.568;2023-03-23T02:34:14;1.20;;;0.60;;
14078;SDS011;7115;50.150;8.568;2023-03-23T02:36:44;1.63;;;0.70;;
14078;SDS011;7115;50.150;8.568;2023-03-23T02:39:13;2.10;;;1.30;;
14078;SDS011;7115;50.150;8.568;2023-03-23T02:41:45;1.40;;;0.63;;
14078;SDS011;7115;50.150;8.568;2023-03-23T02:44:15;1.53;;;0.70;;
14078;SDS011;7115;50.150;8.568;2023-03-23T02:46:42;1.40;;;0.50;;
14078;SDS011;7115;50.150;8.568;2023-03-23T02:49:10;0.63;;;0.47;;
14078;SDS011;7115;50.150;8.568;2023-03-23T02:51:41;1.00;;;0.63;;
14078;SDS011;7115;50.150;8.568;2023-03-23T02:54:09;3.40;;;0.63;;
14078;SDS011;7115;50.150;8.568;2023-03-23T02:56:36;1.63;;;0.50;;
14078;SDS011;7115;50.150;8.568;2023-03-23T02:59:04;1.10;;;0.60;;
14078;SDS011;7115;50.150;8.568;2023-03-23T03:01:48;1.97;;;0.77;;
14078;SDS011;7115;50.150;8.568;2023-03-23T03:04:20;1.00;;;0.70;;
14078;SDS011;7115;50.150;8.568;2023-03-23T03:06:51;1.87;;;0.70;;
14078;SDS011;7115;50.150;8.568;2023-03-23T03:09:27;1.40;;;0.70;;
14078;SDS011;7115;50.150;8.568;2023-03-23T03:11:59;1.70;;;0.70;;
14078;SDS011;7115;50.150;8.568;2023-03-23T03:14:31;2.83;;;0.70;;
14078;SDS011;7115;50.150;8.568;2023-03-23T03:17:03;1.17;;;0.47;;
14078;SDS011;7115;50.150;8.568;2023-03-23T03:19:37;1.63;;;0.67;;
14078;SDS011;7115;50.150;8.568;2023-03-23T03:22:05;2.10;;;0.70;;
14078;SDS011;7115;50.150;8.568;2023-03-23T03:24:34;1.60;;;0.70;;
14078;SDS011;7115;50.150;8.568;2023-03-23T03:27:04;1.90;;;0.80;;
14078;SDS011;7115;50.150;8.568;2023-03-23T03:29:37;2.67;;;0.90;;
14078;SDS011;7115;50.150;8.568;2023-03-23T03:32:10;2.30;;;0.90;;
14078;SDS011;7115;50.150;8.568;2023-03-23T03:34:39;1.10;;;0.80;;
14078;SDS011;7115;50.150;8.568;2023-03-23T03:37:05;3.33;;;0.80;;
14078;SDS011;7115;50.150;8.568;2023-03-23T03:39:34;1.40;;;0.80;;
14078;SDS011;7115;50.150;8.568;2023-03-23T03:42:00;0.90;;;0.60;;
14078;SDS011;7115;50.150;8.568;2023-03-23T03:44:26;1.17;;;1.00;;
14078;SDS011;7115;50.150;8.568;2023-03-23T03:46:52;3.13;;;1.00;;
14078;SDS011;7115;50.150;8.568;2023-03-23T03:49:18;1.40;;;0.80;;
14078;SDS011;7115;50.150;8.568;2023-03-23T03:51:45;0.97;;;0.80;;
14078;SDS011;7115;50.150;8.568;2023-03-23T03:54:11;3.00;;;1.00;;
14078;SDS011;7115;50.150;8.568;2023-03-23T03:56:37;1.83;;;0.80;;
14078;SDS011;7115;50.150;8.568;2023-03-23T03:59:05;2.20;;;0.90;;
14078;SDS011;7115;50.150;8.568;2023-03-23T04:01:33;1.67;;;0.90;;
14078;SDS011;7115;50.150;8.568;2023-03-23T04:03:59;2.67;;;1.00;;
14078;SDS011;7115;50.150;8.568;2023-03-23T04:06:25;2.23;;;0.90;;
14078;SDS011;7115;50.150;8.568;2023-03-23T04:08:54;1.13;;;0.80;;
14078;SDS011;7115;50.150;8.568;2023-03-23T04:11:20;1.50;;;1.00;;
14078;SDS011;7115;50.150;8.568;2023-03-23T04:13:46;2.00;;;1.10;;
14078;SDS011;7115;50.150;8.568;2023-03-23T04:16:12;2.17;;;1.00;;
14078;SDS011;7115;50.150;8.568;2023-03-23T04:18:37;2.40;;;0.90;;
14078;SDS011;7115;50.150;8.568;2023-03-23T04:21:04;2.40;;;1.00;;
14078;SDS011;7115;50.150;8.568;2023-03-23T04:23:33;2.97;;;1.10;;
14078;SDS011;7115;50.150;8.568;2023-03-23T04:26:02;1.60;;;0.93;;
14078;SDS011;7115;50.150;8.568;2023-03-23T04:28:28;1.90;;;0.90;;
14078;SDS011;7115;50.150;8.568;2023-03-23T04:30:58;2.30;;;1.10;;
14078;SDS011;7115;50.150;8.568;2023-03-23T04:33:25;2.47;;;0.90;;
14078;SDS011;7115;50.150;8.568;2023-03-23T04:35:52;1.83;;;0.73;;
14078;SDS011;7115;50.150;8.568;2023-03-23T04:38:20;1.77;;;1.10;;
14078;SDS011;7115;50.150;8.568;2023-03-23T04:40:48;2.93;;;0.97;;
14078;SDS011;7115;50.150;8.568;2023-03-23T04:43:18;1.90;;;0.90;;
14078;SDS011;7115;50.150;8.568;2023-03-23T04:45:46;2.43;;;1.17;;
14078;SDS011;7115;50.150;8.568;2023-03-23T04:48:12;2.67;;;0.90;;
14078;SDS011;7115;50.150;8.568;2023-03-23T04:50:39;1.83;;;0.83;;
14078;SDS011;7115;50.150;8.568;2023-03-23T04:53:05;1.27;;;0.93;;
14078;SDS011;7115;50.150;8.568;2023-03-23T04:55:32;2.13;;;0.90;;
14078;SDS011;7115;50.150;8.568;2023-03-23T04:58:02;2.27;;;1.00;;
14078;SDS011;7115;50.150;8.568;2023-03-23T05:00:29;1.30;;;1.00;;
14078;SDS011;7115;50.150;8.568;2023-03-23T05:02:55;1.87;;;0.90;;
14078;SDS011;7115;50.150;8.568;2023-03-23T05:05:22;2.23;;;1.00;;
14078;SDS011;7115;50.150;8.568;2023-03-23T05:07:50;1.60;;;0.90;;
14078;SDS011;7115;50.150;8.568;2023-03-23T05:10:16;2.23;;;1.00;;
14078;SDS011;7115;50.150;8.568;2023-03-23T05:12:42;1.23;;;0.80;;
14078;SDS011;7115;50.150;8.568;2023-03-23T05:15:10;0.83;;;0.80;;
14078;SDS011;7115;50.150;8.568;2023-03-23T05:17:38;2.10;;;0.90;;
14078;SDS011;7115;50.150;8.568;2023-03-23T05:20:06;2.73;;;1.10;;
14078;SDS011;7115;50.150;8.568;2023-03-23T05:22:36;1.57;;;0.90;;
14078;SDS011;7115;50.150;8.568;2023-03-23T05:25:03;1.60;;;1.10;;
14078;SDS011;7115;50.150;8.568;2023-03-23T05:27:30;2.00;;;0.83;;
14078;SDS011;7115;50.150;8.568;2023-03-23T05:29:56;1.30;;;0.90;;
14078;SDS011;7115;50.150;8.568;2023-03-23T05:32:23;1.47;;;1.10;;
14078;SDS011;7115;50.150;8.568;2023-03-23T05:34:55;2.63;;;1.03;;
14078;SDS011;7115;50.150;8.568;2023-03-23T05:37:21;2.63;;;1.20;;
14078;SDS011;7115;50.150;8.568;2023-03-23T05:39:48;2.80;;;1.10;;
14078;SDS011;7115;50.150;8.568;2023-03-23T05:42:13;2.13;;;0.97;;
14078;SDS011;7115;50.150;8.568;2023-03-23T05:44:39;1.27;;;0.87;;
14078;SDS011;7115;50.150;8.568;2023-03-23T05:47:05;1.50;;;1.00;;
14078;SDS011;7115;50.150;8.568;2023-03-23T05:49:31;1.20;;;0.80;;
14078;SDS011;7115;50.150;8.568;2023-03-23T05:51:59;7.30;;;2.97;;
14078;SDS011;7115;50.150;8.568;2023-03-23T05:54:25;1.40;;;1.03;;
14078;SDS011;7115;50.150;8.568;2023-03-23T05:56:50;2.47;;;1.30;;
14078;SDS011;7115;50.150;8.568;2023-03-23T05:59:16;2.97;;;1.00;;
14078;SDS011;7115;50.150;8.568;2023-03-23T06:01:42;2.43;;;1.10;;
14078;SDS011;7115;50.150;8.568;2023-03-23T06:04:08;1.90;;;1.10;;
14078;SDS011;7115;50.150;8.568;2023-03-23T06:06:34;2.13;;;1.33;;
14078;SDS011;7115;50.150;8.568;2023-03-23T06:09:02;1.57;;;0.80;;
14078;SDS011;7115;50.150;8.568;2023-03-23T06:11:28;3.23;;;0.97;;
14078;SDS011;7115;50.150;8.568;2023-03-23T06:13:54;1.97;;;1.10;;
14078;SDS011;7115;50.150;8.568;2023-03-23T06:16:20;1.43;;;1.17;;
14078;SDS011;7115;50.150;8.568;2023-03-23T06:18:46;2.47;;;1.10;;
14078;SDS011;7115;50.150;8.568;2023-03-23T06:21:13;2.63;;;0.83;;
14078;SDS011;7115;50.150;8.568;2023-03-23T06:23:39;1.30;;;0.90;;
14078;SDS011;7115;50.150;8.568;2023-03-23T06:26:07;2.07;;;1.13;;
14078;SDS011;7115;50.150;8.568;2023-03-23T06:28:33;2.13;;;1.13;;
14078;SDS011;7115;50.150;8.568;2023-03-23T06:30:59;2.07;;;1.13;;
14078;SDS011;7115;50.150;8.568;2023-03-23T06:33:26;1.63;;;1.00;;
14078;SDS011;7115;50.150;8.568;2023-03-23T06:35:52;2.27;;;1.10;;
14078;SDS011;7115;50.150;8.568;2023-03-23T06:38:19;1.40;;;1.10;;
14078;SDS011;7115;50.150;8.568;2023-03-23T06:40:44;2.20;;;1.00;;
14078;SDS011;7115;50.150;8.568;2023-03-23T06:43:13;2.33;;;1.30;;
14078;SDS011;7115;50.150;8.568;2023-03-23T06:45:39;3.33;;;1.23;;
14078;SDS011;7115;50.150;8.568;2023-03-23T06:48:05;1.67;;;1.00;;
14078;SDS011;7115;50.150;8.568;2023-03-23T06:50:32;2.07;;;1.20;;
14078;SDS011;7115;50.150;8.568;2023-03-23T06:52:57;1.90;;;1.20;;
14078;SDS011;7115;50.150;8.568;2023-03-23T06:55:23;3.03;;;1.10;;
14078;SDS011;7115;50.150;8.568;2023-03-23T06:57:49;2.10;;;1.20;;
14078;SDS011;7115;50.150;8.568;2023-03-23T07:00:17;1.17;;;0.97;;
14078;SDS011;7115;50.150;8.568;2023-03-23T07:02:43;1.70;;;1.20;;
14078;SDS011;7115;50.150;8.568;2023-03-23T07:05:09;1.30;;;0.90;;
14078;SDS011;7115;50.150;8.568;2023-03-23T07:07:36;1.47;;;0.90;;
14078;SDS011;7115;50.150;8.568;2023-03-23T07:10:02;1.90;;;1.10;;
14078;SDS011;7115;50.150;8.568;2023-03-23T07:12:29;1.20;;;1.03;;
14078;SDS011;7115;50.150;8.568;2023-03-23T07:14:56;1.77;;;1.20;;
14078;SDS011;7115;50.150;8.568;2023-03-23T07:17:23;3.13;;;1.03;;
14078;SDS011;7115;50.150;8.568;2023-03-23T07:19:49;2.13;;;1.60;;
14078;SDS011;7115;50.150;8.568;2023-03-23T07:22:15;1.50;;;1.30;;
14078;SDS011;7115;50.150;8.568;2023-03-23T07:24:41;1.97;;;1.30;;
14078;SDS011;7115;50.150;8.568;2023-03-23T07:27:08;1.53;;;1.17;;
14078;SDS011;7115;50.150;8.568;2023-03-23T07:29:34;3.10;;;1.30;;
14078;SDS011;7115;50.150;8.568;2023-03-23T07:32:03;1.93;;;1.13;;
14078;SDS011;7115;50.150;8.568;2023-03-23T07:34:31;2.40;;;1.60;;
14078;SDS011;7115;50.150;8.568;2023-03-23T07:36:57;2.73;;;1.60;;
14078;SDS011;7115;50.150;8.568;2023-03-23T07:39:24;2.77;;;1.40;;
14078;SDS011;7115;50.150;8.568;2023-03-23T07:41:51;2.83;;;1.27;;
14078;SDS011;7115;50.150;8.568;2023-03-23T07:44:17;2.10;;;1.43;;
14078;SDS011;7115;50.150;8.568;2023-03-23T07:46:43;1.50;;;1.20;;
14078;SDS011;7115;50.150;8.568;2023-03-23T07:49:09;1.93;;;1.23;;
14078;SDS011;7115;50.150;8.568;2023-03-23T07:51:36;4.00;;;1.70;;
14078;SDS011;7115;50.150;8.568;2023-03-23T07:54:03;3.37;;;1.83;;
14078;SDS011;7115;50.150;8.568;2023-03-23T07:56:29;4.00;;;1.63;;
14078;SDS011;7115;50.150;8.568;2023-03-23T07:58:56;3.90;;;1.50;;
14078;SDS011;7115;50.150;8.568;2023-03-23T08:01:22;1.90;;;1.43;;
14078;SDS011;7115;50.150;8.568;2023-03-23T08:03:51;8.30;;;1.77;;
14078;SDS011;7115;50.150;8.568;2023-03-23T08:06:17;2.00;;;1.63;;
14078;SDS011;7115;50.150;8.568;2023-03-23T08:08:44;2.60;;;1.70;;
14078;SDS011;7115;50.150;8.568;2023-03-23T08:11:10;3.17;;;1.43;;
14078;SDS011;7115;50.150;8.568;2023-03-23T08:13:36;2.00;;;1.37;;
14078;SDS011;7115;50.150;8.568;2023-03-23T08:16:03;2.27;;;1.50;;
14078;SDS011;7115;50.150;8.568;2023-03-23T08:18:30;1.73;;;1.20;;
14078;SDS011;7115;50.150;8.568;2023-03-23T08:20:56;1.90;;;1.40;;
14078;SDS011;7115;50.150;8.568;2023-03-23T08:23:24;6.70;;;1.57;;
14078;SDS011;7115;50.150;8.568;2023-03-23T08:25:52;1.83;;;1.33;;
14078;SDS011;7115;50.150;8.568;2023-03-23T08:28:18;2.57;;;1.40;;
14078;SDS011;7115;50.150;8.568;2023-03-23T08:30:44;2.40;;;1.40;;
14078;SDS011;7115;50.150;8.568;2023-03-23T08:33:10;3.30;;;1.40;;
14078;SDS011;7115;50.150;8.568;2023-03-23T08:35:37;2.60;;;1.50;;
14078;SDS011;7115;50.150;8.568;2023-03-23T08:38:03;4.97;;;1.47;;
14078;SDS011;7115;50.150;8.568;2023-03-23T08:40:29;1.87;;;1.13;;
14078;SDS011;7115;50.150;8.568;2023-03-23T08:42:56;1.67;;;1.37;;
14078;SDS011;7115;50.150;8.568;2023-03-23T08:45:23;2.53;;;1.30;;
14078;SDS011;7115;50.150;8.568;2023-03-23T08:47:50;3.87;;;1.20;;
14078;SDS011;7115;50.150;8.568;2023-03-23T08:50:21;1.83;;;1.33;;
14078;SDS011;7115;50.150;8.568;2023-03-23T08:52:48;2.73;;;1.60;;
14078;SDS011;7115;50.150;8.568;2023-03-23T08:55:15;3.63;;;1.60;;
14078;SDS011;7115;50.150;8.568;2023-03-23T08:57:42;3.53;;;1.43;;
14078;SDS011;7115;50.150;8.568;2023-03-23T09:00:12;2.80;;;1.50;;
14078;SDS011;7115;50.150;8.568;2023-03-23T09:02:43;5.30;;;1.50;;
14078;SDS011;7115;50.150;8.568;2023-03-23T09:05:10;3.50;;;1.50;;
14078;SDS011;7115;50.150;8.568;2023-03-23T09:07:37;2.53;;;1.60;;
14078;SDS011;7115;50.150;8.568;2023-03-23T09:10:03;2.53;;;1.37;;
14078;SDS011;7115;50.150;8.568;2023-03-23T09:12:30;1.60;;;1.30;;
14078;SDS011;7115;50.150;8.568;2023-03-23T09:14:56;2.40;;;1.37;;
14078;SDS011;7115;50.150;8.568;2023-03-23T09:17:23;2.63;;;1.80;;
14078;SDS011;7115;50.150;8.568;2023-03-23T09:19:49;6.53;;;1.50;;
14078;SDS011;7115;50.150;8.568;2023-03-23T09:22:15;4.43;;;1.60;;
14078;SDS011;7115;50.150;8.568;2023-03-23T09:24:44;1.70;;;1.17;;
14078;SDS011;7115;50.150;8.568;2023-03-23T09:27:11;1.93;;;1.40;;
14078;SDS011;7115;50.150;8.568;2023-03-23T09:29:37;2.43;;;1.70;;
14078;SDS011;7115;50.150;8.568;2023-03-23T09:32:03;1.97;;;1.27;;
14078;SDS011;7115;50.150;8.568;2023-03-23T09:34:31;2.33;;;1.60;;
14078;SDS011;7115;50.150;8.568;2023-03-23T09:37:00;2.67;;;1.30;;
14078;SDS011;7115;50.150;8.568;2023-03-23T09:39:29;1.70;;;1.03;;
14078;SDS011;7115;50.150;8.568;2023-03-23T09:41:59;2.67;;;1.30;;
14078;SDS011;7115;50.150;8.568;2023-03-23T09:44:42;2.97;;;1.27;;
14078;SDS011;7115;50.150;8.568;2023-03-23T09:47:22;1.60;;;1.13;;
14078;SDS011;7115;50.150;8.568;2023-03-23T09:49:59;2.70;;;1.20;;
14078;SDS011;7115;50.150;8.568;2023-03-23T09:52:32;1.90;;;1.27;;
14078;SDS011;7115;50.150;8.568;2023-03-23T09:55:02;2.53;;;1.17;;
14078;SDS011;7115;50.150;8.568;2023-03-23T09:57:30;2.23;;;1.40;;
14078;SDS011;7115;50.150;8.568;2023-03-23T10:00:02;2.67;;;1.27;;
14078;SDS011;7115;50.150;8.568;2023-03-23T10:02:36;1.53;;;1.10;;
14078;SDS011;7115;50.150;8.568;2023-03-23T10:05:16;2.50;;;1.30;;
14078;SDS011;7115;50.150;8.568;2023-03-23T10:07:50;1.47;;;1.10;;
14078;SDS011;7115;50.150;8.568;2023-03-23T10:10:16;1.60;;;0.70;;
14078;SDS011;7115;50.150;8.568;2023-03-23T10:12:45;1.40;;;0.70;;
14078;SDS011;7115;50.150;8.568;2023-03-23T10:15:16;2.17;;;0.63;;
14078;SDS011;7115;50.150;8.568;2023-03-23T10:17:46;1.00;;;0.47;;
14078;SDS011;7115;50.150;8.568;2023-03-23T10:20:23;0.67;;;0.57;;
14078;SDS011;7115;50.150;8.568;2023-03-23T10:22:58;2.93;;;0.60;;
14078;SDS011;7115;50.150;8.568;2023-03-23T10:25:31;2.37;;;0.73;;
14078;SDS011;7115;50.150;8.568;2023-03-23T10:28:03;1.33;;;0.60;;
14078;SDS011;7115;50.150;8.568;2023-03-23T10:30:35;1.00;;;0.73;;
14078;SDS011;7115;50.150;8.568;2023-03-23T10:33:03;1.30;;;0.90;;
14078;SDS011;7115;50.150;8.568;2023-03-23T10:35:36;4.60;;;0.80;;
14078;SDS011;7115;50.150;8.568;2023-03-23T10:38:09;2.17;;;1.00;;
14078;SDS011;7115;50.150;8.568;2023-03-23T10:40:45;4.10;;;0.90;;
14078;SDS011;7115;50.150;8.568;2023-03-23T10:43:16;3.17;;;0.73;;
14078;SDS011;7115;50.150;8.568;2023-03-23T10:45:42;0.83;;;0.67;;
14078;SDS011;7115;50.150;8.568;2023-03-23T10:48:11;1.67;;;1.00;;
14078;SDS011;7115;50.150;8.568;2023-03-23T10:50:42;1.83;;;0.80;;
14078;SDS011;7115;50.150;8.568;2023-03-23T10:53:14;2.13;;;0.80;;
14078;SDS011;7115;50.150;8.568;2023-03-23T10:55:43;3.33;;;0.90;;
14078;SDS011;7115;50.150;8.568;2023-03-23T10:58:10;1.97;;;0.60;;
14078;SDS011;7115;50.150;8.568;2023-03-23T11:00:47;0.97;;;0.63;;
14078;SDS011;7115;50.150;8.568;2023-03-23T11:03:21;1.10;;;0.90;;
14078;SDS011;7115;50.150;8.568;2023-03-23T11:06:05;2.13;;;0.90;;
14078;SDS011;7115;50.150;8.568;2023-03-23T11:08:34;1.33;;;0.80;;
14078;SDS011;7115;50.150;8.568;2023-03-23T11:11:10;2.60;;;0.93;;
14078;SDS011;7115;50.150;8.568;2023-03-23T11:13:39;1.20;;;0.90;;
14078;SDS011;7115;50.150;8.568;2023-03-23T11:16:07;3.07;;;1.27;;
14078;SDS011;7115;50.150;8.568;2023-03-23T11:18:35;1.83;;;0.90;;
14078;SDS011;7115;50.150;8.568;2023-03-23T11:21:02;0.90;;;0.70;;
14078;SDS011;7115;50.150;8.568;2023-03-23T11:23:33;3.53;;;1.10;;
14078;SDS011;7115;50.150;8.568;2023-03-23T11:26:08;1.07;;;0.90;;
14078;SDS011;7115;50.150;8.568;2023-03-23T11:28:41;2.23;;;0.70;;
14078;SDS011;7115;50.150;8.568;2023-03-23T11:31:09;0.83;;;0.53;;
14078;SDS011;7115;50.150;8.568;2023-03-23T11:33:40;1.03;;;0.60;;
14078;SDS011;7115;50.150;8.568;2023-03-23T11:36:14;1.60;;;0.80;;
14078;SDS011;7115;50.150;8.568;2023-03-23T11:38:40;1.50;;;0.90;;
14078;SDS011;7115;50.150;8.568;2023-03-23T11:41:09;1.47;;;1.00;;
14078;SDS011;7115;50.150;8.568;2023-03-23T11:43:38;0.90;;;0.70;;
14078;SDS011;7115;50.150;8.568;2023-03-23T11:46:09;1.60;;;0.70;;
14078;SDS011;7115;50.150;8.568;2023-03-23T11:48:42;0.53;;;0.50;;
14078;SDS011;7115;50.150;8.568;2023-03-23T11:51:13;1.73;;;0.60;;
14078;SDS011;7115;50.150;8.568;2023-03-23T11:53:45;2.83;;;0.80;;
14078;SDS011;7115;50.150;8.568;2023-03-23T11:56:17;1.37;;;0.60;;
14078;SDS011;7115;50.150;8.568;2023-03-23T11:58:49;0.60;;;0.50;;
14078;SDS011;7115;50.150;8.568;2023-03-23T12:01:20;0.80;;;0.40;;
14078;SDS011;7115;50.150;8.568;2023-03-23T12:03:59;0.77;;;0.40;;
14078;SDS011;7115;50.150;8.568;2023-03-23T12:06:38;2.07;;;0.60;;
14078;SDS011;7115;50.150;8.568;2023-03-23T12:09:16;1.03;;;0.53;;
14078;SDS011;7115;50.150;8.568;2023-03-23T12:11:52;0.80;;;0.50;;
14078;SDS011;7115;50.150;8.568;2023-03-23T12:14:29;3.93;;;0.73;;
14078;SDS011;7115;50.150;8.568;2023-03-23T12:17:06;1.43;;;0.60;;
14078;SDS011;7115;50.150;8.568;2023-03-23T12:19:43;1.57;;;0.37;;
14078;SDS011;7115;50.150;8.568;2023-03-23T12:22:20;1.17;;;0.33;;
14078;SDS011;7115;50.150;8.568;2023-03-23T12:24:58;0.50;;;0.30;;
14078;SDS011;7115;50.150;8.568;2023-03-23T12:27:35;1.17;;;0.50;;
14078;SDS011;7115;50.150;8.568;2023-03-23T12:30:13;0.57;;;0.57;;
14078;SDS011;7115;50.150;8.568;2023-03-23T12:32:57;1.10;;;0.57;;
14078;SDS011;7115;50.150;8.568;2023-03-23T12:35:36;3.33;;;0.77;;
14078;SDS011;7115;50.150;8.568;2023-03-23T12:41:15;2.53;;;0.70;;
14078;SDS011;7115;50.150;8.568;2023-03-23T12:43:46;1.23;;;0.90;;
14078;SDS011;7115;50.150;8.568;2023-03-23T12:49:05;0.60;;;0.40;;
14078;SDS011;7115;50.150;8.568;2023-03-23T12:51:37;1.60;;;0.67;;
14078;SDS011;7115;50.150;8.568;2023-03-23T12:54:09;1.30;;;0.70;;
14078;SDS011;7115;50.150;8.568;2023-03-23T12:56:44;1.17;;;0.60;;
14078;SDS011;7115;50.150;8.568;2023-03-23T12:59:17;1.00;;;0.60;;
14078;SDS011;7115;50.150;8.568;2023-03-23T13:01:49;0.57;;;0.40;;
14078;SDS011;7115;50.150;8.568;2023-03-23T13:04:21;0.87;;;0.67;;
14078;SDS011;7115;50.150;8.568;2023-03-23T13:06:51;0.70;;;0.70;;
14078;SDS011;7115;50.150;8.568;2023-03-23T13:09:19;0.70;;;0.57;;
14078;SDS011;7115;50.150;8.568;2023-03-23T13:11:53;0.80;;;0.50;;
14078;SDS011;7115;50.150;8.568;2023-03-23T13:14:26;0.73;;;0.60;;
14078;SDS011;7115;50.150;8.568;2023-03-23T13:17:03;1.40;;;0.50;;
14078;SDS011;7115;50.150;8.568;2023-03-23T13:19:46;1.60;;;0.80;;
14078;SDS011;7115;50.150;8.568;2023-03-23T13:22:27;1.67;;;0.60;;
14078;SDS011;7115;50.150;8.568;2023-03-23T13:25:00;3.07;;;0.60;;
14078;SDS011;7115;50.150;8.568;2023-03-23T13:27:30;3.53;;;1.33;;
14078;SDS011;7115;50.150;8.568;2023-03-23T13:29:56;1.00;;;0.60;;
14078;SDS011;7115;50.150;8.568;2023-03-23T13:32:32;1.13;;;0.40;;
14078;SDS011;7115;50.150;8.568;2023-03-23T13:35:00;0.50;;;0.40;;
14078;SDS011;7115;50.150;8.568;2023-03-23T13:37:28;1.10;;;0.73;;
14078;SDS011;7115;50.150;8.568;2023-03-23T13:39:54;0.67;;;0.67;;
14078;SDS011;7115;50.150;8.568;2023-03-23T13:42:24;0.70;;;0.60;;
14078;SDS011;7115;50.150;8.568;2023-03-23T13:45:05;0.93;;;0.60;;
14078;SDS011;7115;50.150;8.568;2023-03-23T13:47:44;0.63;;;0.40;;
14078;SDS011;7115;50.150;8.568;2023-03-23T13:50:13;3.13;;;0.70;;
14078;SDS011;7115;50.150;8.568;2023-03-23T13:52:52;0.90;;;0.50;;
14078;SDS011;7115;50.150;8.568;2023-03-23T13:55:22;0.83;;;0.40;;
14078;SDS011;7115;50.150;8.568;2023-03-23T13:57:57;0.63;;;0.53;;
14078;SDS011;7115;50.150;8.568;2023-03-23T14:00:44;0.60;;;0.50;;
14078;SDS011;7115;50.150;8.568;2023-03-23T14:03:13;1.70;;;0.77;;
14078;SDS011;7115;50.150;8.568;2023-03-23T14:05:44;1.77;;;0.80;;
14078;SDS011;7115;50.150;8.568;2023-03-23T14:08:12;1.30;;;0.60;;
14078;SDS011;7115;50.150;8.568;2023-03-23T14:10:49;1.30;;;0.67;;
14078;SDS011;7115;50.150;8.568;2023-03-23T14:13:20;1.53;;;0.90;;
14078;SDS011;7115;50.150;8.568;2023-03-23T14:15:58;1.13;;;0.60;;
14078;SDS011;7115;50.150;8.568;2023-03-23T14:18:26;1.70;;;0.73;;
14078;SDS011;7115;50.150;8.568;2023-03-23T14:20:56;1.10;;;0.63;;
14078;SDS011;7115;50.150;8.568;2023-03-23T14:23:22;3.17;;;0.67;;
14078;SDS011;7115;50.150;8.568;2023-03-23T14:25:58;1.57;;;0.77;;
14078;SDS011;7115;50.150;8.568;2023-03-23T14:28:32;1.77;;;0.70;;
14078;SDS011;7115;50.150;8.568;2023-03-23T14:31:03;1.70;;;0.67;;
14078;SDS011;7115;50.150;8.568;2023-03-23T14:33:30;0.60;;;0.47;;
14078;SDS011;7115;50.150;8.568;2023-03-23T14:35:57;1.50;;;1.20;;
14078;SDS011;7115;50.150;8.568;2023-03-23T14:38:24;2.17;;;0.73;;
14078;SDS011;7115;50.150;8.568;2023-03-23T14:40:59;2.40;;;0.80;;
14078;SDS011;7115;50.150;8.568;2023-03-23T14:43:26;1.00;;;0.67;;
14078;SDS011;7115;50.150;8.568;2023-03-23T14:45:53;1.77;;;0.70;;
14078;SDS011;7115;50.150;8.568;2023-03-23T14:48:21;0.70;;;0.70;;
14078;SDS011;7115;50.150;8.568;2023-03-23T14:50:49;1.60;;;0.67;;
14078;SDS011;7115;50.150;8.568;2023-03-23T14:53:16;4.10;;;0.70;;
14078;SDS011;7115;50.150;8.568;2023-03-23T14:55:46;1.23;;;0.80;;
14078;SDS011;7115;50.150;8.568;2023-03-23T14:58:14;1.27;;;0.83;;
14078;SDS011;7115;50.150;8.568;2023-03-23T15:00:44;2.30;;;1.07;;
14078;SDS011;7115;50.150;8.568;2023-03-23T15:03:14;2.00;;;0.80;;
14078;SDS011;7115;50.150;8.568;2023-03-23T15:05:43;3.80;;;1.43;;
14078;SDS011;7115;50.150;8.568;2023-03-23T15:08:12;1.80;;;0.70;;
14078;SDS011;7115;50.150;8.568;2023-03-23T15:10:41;2.03;;;0.70;;
14078;SDS011;7115;50.150;8.568;2023-03-23T15:13:09;2.43;;;0.70;;
14078;SDS011;7115;50.150;8.568;2023-03-23T15:15:37;1.30;;;1.10;;
14078;SDS011;7115;50.150;8.568;2023-03-23T15:18:03;1.47;;;0.87;;
14078;SDS011;7115;50.150;8.568;2023-03-23T15:20:30;1.47;;;0.80;;
14078;SDS011;7115;50.150;8.568;2023-03-23T15:23:05;0.63;;;0.60;;
14078;SDS011;7115;50.150;8.568;2023-03-23T15:25:33;0.70;;;0.53;;